This is the latest recevied weather packets stored in our database for station/object DK9XR-14. If no packets are shown the sender has not sent any weather packets the latest 1 day(s).
| Time | Temp. | Humidity | Pressure | Rain* | Wind** | Luminosity | Snow |
|---|---|---|---|---|---|---|---|
| 1777975861 | 19.44° C | 57% | 1009.3 hPa | 0 mm | 1.34 m/s, 27° | - | - |
| 1777975561 | 19.44° C | 58% | 1009.4 hPa | 0 mm | 0.45 m/s, 305° | - | - |
| 1777975261 | 19.44° C | 59% | 1009.4 hPa | 0 mm | 0.89 m/s, 345° | - | - |
| 1777974960 | 19.44° C | 57% | 1009.4 hPa | 0 mm | 1.79 m/s, 309° | - | - |
| 1777974660 | 19.44° C | 59% | 1009.5 hPa | 0 mm | 0.89 m/s, 309° | - | - |
| 1777974361 | 19.44° C | 59% | 1009.4 hPa | 0 mm | 1.79 m/s, 0° | - | - |
| 1777974061 | 19.44° C | 59% | 1009.5 hPa | 0 mm | 1.34 m/s, 324° | - | - |
| 1777973762 | 18.89° C | 61% | 1009.6 hPa | 0 mm | 0.45 m/s, 148° | - | - |
| 1777973460 | 18.89° C | 61% | 1009.6 hPa | 0 mm | 0.45 m/s, 78° | - | - |
| 1777973162 | 18.33° C | 62% | 1009.7 hPa | 0 mm | 0 m/s | - | - |
| 1777972860 | 18.33° C | 64% | 1009.7 hPa | 0 mm | 0.45 m/s, 316° | - | - |
| 1777972560 | 17.78° C | 65% | 1009.8 hPa | 0 mm | 0.89 m/s, 312° | - | - |
| 1777972262 | 17.78° C | 66% | 1009.8 hPa | 0 mm | 0 m/s | - | - |
| 1777971661 | 17.22° C | 67% | 1009.8 hPa | 0 mm | 0.45 m/s, 161° | - | - |
| 1777971360 | 17.22° C | 66% | 1009.9 hPa | 0 mm | 0.89 m/s, 159° | - | - |
| 1777971062 | 17.22° C | 66% | 1009.8 hPa | 0 mm | 1.34 m/s, 144° | - | - |
| 1777970760 | 17.22° C | 68% | 1009.9 hPa | 0 mm | 0.45 m/s, 251° | - | - |
| 1777970462 | 17.22° C | 67% | 1010 hPa | 0 mm | 0.89 m/s, 159° | - | - |
| 1777970161 | 17.22° C | 68% | 1010.1 hPa | 0 mm | 0.89 m/s, 243° | - | - |
| 1777969861 | 16.67° C | 69% | 1010.1 hPa | 0 mm | 0.89 m/s, 157° | - | - |
| 1777969559 | 17.22° C | 68% | 1010.1 hPa | 0 mm | 0.89 m/s, 159° | - | - |
| 1777969261 | 16.67° C | 69% | 1010 hPa | 0 mm | 0.45 m/s, 274° | - | - |
| 1777968960 | 16.67° C | 70% | 1010.1 hPa | 0 mm | 0 m/s | - | - |
| 1777968661 | 16.11° C | 71% | 1010.1 hPa | 0 mm | 0 m/s | - | - |
| 1777968360 | 16.11° C | 70% | 1010.1 hPa | 0 mm | 0.89 m/s, 226° | - | - |
* Rain latest hour (hover to see other rain measurements)
** Current wind speed in m/s (hover to see current wind gust speed)